Terminal Aerodrome Forecast
Issued by NWS El Paso, TX

Home | Current Version | Previous Version | Text Only | Print | Product List | Glossary On
Versions: 1 2 3 4 5 6 7 8 9 10 11 12 13 14 15 16 17 18
000
FTUS44 KEPZ 092320
TAFELP
TAF
KELP 092320Z 1000/1024 19003KT P6SM FEW026 FEW250
     FM100100 12005KT P6SM FEW026 SCT250
     FM100800 03004KT P6SM FEW030 SCT250
     FM102100 22010KT P6SM SCT250=

USA.gov is the U.S. government's official web portal to all federal, state and local government web resources and services.